Rogers, AR

12:54 PM CDT on April 18, 2015 (GMT -0500)
Bentonville Municipal-Thaden | | Change Station
CLOSE
Current Station
Airport
Location: Bentonville,
Elevation: 1296 ft
Nearby Weather Stations

Elev 1296 ft 36.34 °N, 94.22 °W | Updated 19 minutes ago

Overcast
Overcast
63 °F
Feels Like 63 °F
N
0
Wind Variable Wind from North

Today
High -- | Low -- °F
--% Chance of Precip.
Yesterday
High -- | Low -- °F
Precip. -- in
6:38 AM 7:52 PM
Waning Crescent, 0% visible
Pressure 29.99 in
Visibility 10.0 miles
Clouds Few 2900 ft
Dew Point 57 °F
Humidity 82%
Rainfall 1.11 in
Snow Depth Not available.
UV 10 out of 12
Pollen 3.90 out of 12
Air Quality Not available.
Flu Activity Sporadic
METAR KVBT 181735Z AUTO 00000KT 10SM FEW029 17/14 A2999 RMK AO1 P0001

More Conditions Fewer Conditions

Pressure 29.99 in
Visibility 10.0 miles
Clouds Few 2900 ft
Dew Point 57 °F
Humidity 82%
Rainfall 1.11 in
Snow Depth Not available.
UV 10 out of 12
Pollen 3.90 out of 12
Air Quality Not available.
Flu Activity Sporadic
METAR KVBT 181735Z AUTO 00000KT 10SM FEW029 17/14 A2999 RMK AO1 P0001

More Conditions Fewer Conditions

Nowcast | as of 12:37 PM CDT on April 18, 2015

At 1230 PM...Doppler radar indicated numerous showers and areas of light rain over much of western Arkansas. Light showers were widely scattered over eastern Oklahoma...east of a line from Wilburton to Muskogee to Vinita. The precipitation was moving to the north northeast around 20 to 25 miles an hour. Another area of mainly light showers has developed farther west...over portions of Tulsa...Osage..creek and Pawnee counties. These were moving to the northeast around 25 miles an hour. Through 2 PM...the precipitation over northwest Arkansas will slowly weaken and shift to the north and east. Over eastern Oklahoma...scattered showers and isolated thunderstorms will be possible through the afternoon. Through 2 PM...most of the precipitation is expected to remain along and northwest of Interstate 44...and west of Highway 169.

×

10-Day Weather Forecast

Almanac

Astronomy

Apr. 18, 2015 Rise Set
Actual Time
Civil Twilight
Nautical Twilight
Astronomical Twilight
Moon
Length of Visible Light
Length of Day
Tomorrow will be .
, % of the Moon is Illuminated

Today's Extremes

State Highs State Lows

Community

WunderPhotos

Upload Photos

1,814,470 photos uploaded!

WunderBlogs® & News

Nearby

Air Quality

  Air Quality AQ Index Pollutant
Not available.

Snow Depth

Station Depth Elevation

Earthquake Activity

City Distance Mag. Time & Date
Minimum magnitude displayed is 2.5.

Coastal Water Temperatures

Place Temperature

Stations

Nearby Weather Stations

Station Location Temp. Windchill Dew Point Humidity Wind Precip. Elev Updated Type